createdAt,value
2019-03-20T00:00:52.900Z,1.20
2019-03-20T00:03:21.821Z,1.20
2019-03-20T00:05:49.421Z,1.20
2019-03-20T00:08:17.066Z,1.10
2019-03-20T00:10:44.672Z,1.10
2019-03-20T00:13:12.263Z,1.00
2019-03-20T00:15:39.809Z,1.00
2019-03-20T00:18:07.398Z,1.10
2019-03-20T00:20:34.983Z,1.00
2019-03-20T00:23:02.509Z,1.10
2019-03-20T00:25:31.389Z,1.00
2019-03-20T00:27:58.908Z,1.00
2019-03-20T00:30:26.503Z,1.00
2019-03-20T00:32:54.294Z,1.00
2019-03-20T00:35:22.301Z,1.00
2019-03-20T00:37:49.782Z,1.00
2019-03-20T00:40:17.264Z,1.00
2019-03-20T00:42:44.698Z,1.00
2019-03-20T00:45:12.400Z,1.00
2019-03-20T00:47:39.924Z,1.00
2019-03-20T00:50:10.892Z,1.00
2019-03-20T00:52:38.509Z,0.90
2019-03-20T00:55:07.517Z,0.90
2019-03-20T00:57:35.074Z,0.90
2019-03-20T01:00:05.094Z,0.90
2019-03-20T01:02:32.979Z,0.90
2019-03-20T01:05:08.487Z,0.80
2019-03-20T01:07:29.814Z,0.90
2019-03-20T01:09:57.321Z,0.80
2019-03-20T01:12:24.777Z,0.90
2019-03-20T01:14:52.406Z,0.90
2019-03-20T01:17:19.965Z,0.90
2019-03-20T01:19:47.439Z,0.80
2019-03-20T01:22:15.039Z,0.90
2019-03-20T01:24:42.698Z,0.80
2019-03-20T01:27:11.788Z,0.80
2019-03-20T01:29:39.705Z,0.80
2019-03-20T01:32:07.175Z,0.80
2019-03-20T01:34:35.018Z,0.70
2019-03-20T01:37:02.737Z,0.70
2019-03-20T01:39:31.484Z,0.70
2019-03-20T01:41:59.042Z,0.70
2019-03-20T01:44:26.464Z,0.60
2019-03-20T01:46:54.098Z,0.60
2019-03-20T01:49:21.565Z,0.60
2019-03-20T01:51:49.022Z,0.60
2019-03-20T01:54:16.593Z,0.60
2019-03-20T01:56:44.118Z,0.50
2019-03-20T01:59:11.605Z,0.50
2019-03-20T02:01:39.073Z,0.50
2019-03-20T02:04:06.601Z,0.50
2019-03-20T02:06:34.249Z,0.50
2019-03-20T02:09:01.787Z,0.50
2019-03-20T02:11:31.221Z,0.50
2019-03-20T02:13:58.797Z,0.50
2019-03-20T02:16:26.494Z,0.50
2019-03-20T02:18:54.285Z,0.40
2019-03-20T02:21:21.775Z,0.40
2019-03-20T02:23:49.270Z,0.40
2019-03-20T02:26:17.017Z,0.40
2019-03-20T02:28:44.652Z,0.40
2019-03-20T02:31:12.220Z,0.40
2019-03-20T02:33:39.795Z,0.40
2019-03-20T02:36:07.522Z,0.40
2019-03-20T02:38:35.049Z,0.40
2019-03-20T02:41:02.599Z,0.40
2019-03-20T02:43:30.192Z,0.30
2019-03-20T02:45:57.693Z,0.30
2019-03-20T02:48:25.381Z,0.30
2019-03-20T02:50:52.890Z,0.30
2019-03-20T02:53:20.359Z,0.20
2019-03-20T02:55:48.882Z,0.20
2019-03-20T02:58:16.496Z,0.20
2019-03-20T03:00:44.056Z,0.20
2019-03-20T03:03:12.542Z,0.20
2019-03-20T03:05:40.099Z,0.10
2019-03-20T03:08:07.673Z,0.10
2019-03-20T03:10:35.216Z,0.10
2019-03-20T03:13:02.659Z,0.10
2019-03-20T03:15:30.154Z,0.00
2019-03-20T03:17:57.593Z,-0.10
2019-03-20T03:20:25.087Z,-0.10
2019-03-20T03:22:52.614Z,-0.20
2019-03-20T03:25:20.188Z,-0.20
2019-03-20T03:27:48.106Z,-0.20
2019-03-20T03:30:15.754Z,-0.20
2019-03-20T03:32:43.328Z,-0.20
2019-03-20T03:35:16.174Z,-0.20
2019-03-20T03:37:40.314Z,-0.20
2019-03-20T03:40:08.594Z,-0.20
2019-03-20T03:42:36.069Z,-0.20
2019-03-20T03:45:06.565Z,-0.20
2019-03-20T03:47:34.190Z,-0.20
2019-03-20T03:50:01.646Z,-0.20
2019-03-20T03:52:29.219Z,-0.20
2019-03-20T03:54:56.750Z,-0.20
2019-03-20T03:57:24.382Z,-0.20
2019-03-20T03:59:51.917Z,-0.20
2019-03-20T04:02:34.708Z,-0.20
2019-03-20T04:05:02.192Z,-0.30
2019-03-20T04:07:29.808Z,-0.20
2019-03-20T04:09:57.280Z,-0.30
2019-03-20T04:12:24.758Z,-0.30
2019-03-20T04:14:52.198Z,-0.30
2019-03-20T04:17:21.881Z,-0.30
2019-03-20T04:19:49.481Z,-0.30
2019-03-20T04:22:16.946Z,-0.30
2019-03-20T04:24:44.408Z,-0.30
2019-03-20T04:27:11.858Z,-0.30
2019-03-20T04:29:39.326Z,-0.30
2019-03-20T04:32:06.779Z,-0.40
2019-03-20T04:34:34.381Z,-0.40
2019-03-20T04:37:01.920Z,-0.40
2019-03-20T04:39:29.477Z,-0.40
2019-03-20T04:41:57.209Z,-0.40
2019-03-20T04:44:24.757Z,-0.40
2019-03-20T04:46:52.279Z,-0.50
2019-03-20T04:49:19.962Z,-0.50
2019-03-20T04:51:47.433Z,-0.50
2019-03-20T04:54:14.934Z,-0.60
2019-03-20T04:56:42.398Z,-0.60
2019-03-20T04:59:09.934Z,-0.60
2019-03-20T05:01:37.501Z,-0.60
2019-03-20T05:04:05.035Z,-0.60
2019-03-20T05:06:32.532Z,-0.60
2019-03-20T05:08:59.996Z,-0.60
2019-03-20T05:11:27.482Z,-0.60
2019-03-20T05:13:54.998Z,-0.60
2019-03-20T05:16:22.542Z,-0.60
2019-03-20T05:18:50.121Z,-0.60
2019-03-20T05:21:17.649Z,-0.70
2019-03-20T05:23:45.120Z,-0.70
2019-03-20T05:26:12.698Z,-0.70
2019-03-20T05:28:40.195Z,-0.70
2019-03-20T05:31:08.729Z,-0.70
2019-03-20T05:33:36.241Z,-0.70
2019-03-20T05:36:03.752Z,-0.70
2019-03-20T05:38:31.211Z,-0.70
2019-03-20T05:40:58.688Z,-0.60
2019-03-20T05:43:26.229Z,-0.60
2019-03-20T05:45:53.911Z,-0.60
2019-03-20T05:48:21.370Z,-0.60
2019-03-20T05:50:48.862Z,-0.50
2019-03-20T05:53:16.286Z,-0.50
2019-03-20T05:55:43.773Z,-0.50
2019-03-20T05:58:11.257Z,-0.50
2019-03-20T06:00:38.753Z,-0.40
2019-03-20T06:03:06.207Z,-0.30
2019-03-20T06:05:33.905Z,-0.10
2019-03-20T06:08:01.388Z,0.30
2019-03-20T06:10:28.859Z,0.70
2019-03-20T06:12:56.425Z,1.20
2019-03-20T06:15:24.682Z,1.80
2019-03-20T06:17:52.271Z,2.70
2019-03-20T06:20:19.696Z,3.60
2019-03-20T06:22:47.227Z,4.40
2019-03-20T06:25:14.774Z,5.00
2019-03-20T06:27:42.371Z,5.70
2019-03-20T06:30:12.845Z,6.50
2019-03-20T06:32:40.661Z,7.30
2019-03-20T06:35:09.258Z,8.00
2019-03-20T06:37:36.774Z,8.70
2019-03-20T06:40:04.621Z,9.50
2019-03-20T06:42:32.113Z,10.20
2019-03-20T06:44:59.765Z,10.90
2019-03-20T06:47:27.281Z,11.50
2019-03-20T06:49:54.761Z,12.10
2019-03-20T06:52:23.399Z,12.60
2019-03-20T06:54:50.814Z,13.10
2019-03-20T06:57:18.347Z,13.80
2019-03-20T07:00:36.549Z,14.40
2019-03-20T07:03:06.187Z,14.90
2019-03-20T07:05:58.077Z,15.40
2019-03-20T07:08:28.153Z,15.40
2019-03-20T07:11:16.772Z,15.80
2019-03-20T07:13:44.281Z,16.40
2019-03-20T07:16:11.721Z,16.80
2019-03-20T07:18:39.282Z,17.30
2019-03-20T07:21:06.824Z,18.00
2019-03-20T07:23:34.374Z,18.60
2019-03-20T07:26:01.854Z,19.30
2019-03-20T07:28:29.412Z,19.90
2019-03-20T07:30:56.989Z,20.60
2019-03-20T07:33:31.418Z,21.40
2019-03-20T07:35:59.446Z,22.10
2019-03-20T07:38:27.009Z,22.90
2019-03-20T07:40:54.711Z,23.60
2019-03-20T07:43:22.879Z,24.20
2019-03-20T07:45:50.586Z,24.60
2019-03-20T07:48:22.387Z,24.80
2019-03-20T07:50:47.514Z,25.20
2019-03-20T07:53:14.974Z,25.30
2019-03-20T07:55:44.743Z,25.60
2019-03-20T07:58:12.238Z,26.20
2019-03-20T08:00:39.772Z,26.50
2019-03-20T08:03:07.252Z,26.90
2019-03-20T08:05:34.886Z,27.50
2019-03-20T08:08:07.223Z,28.10
2019-03-20T08:10:31.887Z,28.50
2019-03-20T08:12:59.485Z,28.90
2019-03-20T08:15:26.947Z,29.40
2019-03-20T08:17:54.597Z,29.80
2019-03-20T08:20:22.034Z,30.20
2019-03-20T08:22:49.469Z,30.60
2019-03-20T08:25:16.996Z,30.50
2019-03-20T08:27:44.434Z,30.80
2019-03-20T08:30:13.855Z,31.20
2019-03-20T08:32:41.570Z,31.60
2019-03-20T08:35:09.432Z,32.10
2019-03-20T08:37:36.995Z,32.40
2019-03-20T08:40:05.101Z,32.40
2019-03-20T08:42:32.949Z,32.80
2019-03-20T08:45:00.464Z,33.00
2019-03-20T08:47:28.065Z,33.20
2019-03-20T08:49:55.566Z,33.30
2019-03-20T08:52:23.091Z,33.60
2019-03-20T08:54:50.570Z,33.90
2019-03-20T08:57:18.173Z,33.90
2019-03-20T08:59:45.771Z,33.90
2019-03-20T09:02:14.429Z,33.80
2019-03-20T09:04:42.021Z,34.10
2019-03-20T09:07:09.785Z,34.30
2019-03-20T09:09:37.254Z,34.50
2019-03-20T09:12:04.787Z,34.80
2019-03-20T09:14:32.250Z,34.70
2019-03-20T09:16:59.762Z,35.00
2019-03-20T09:19:27.638Z,35.30
2019-03-20T09:21:55.097Z,35.80
2019-03-20T09:24:22.608Z,35.90
2019-03-20T09:26:58.213Z,36.30
2019-03-20T09:29:35.588Z,36.40
2019-03-20T09:31:55.224Z,36.70
2019-03-20T09:34:23.006Z,36.90
2019-03-20T09:36:50.667Z,36.60
2019-03-20T09:39:18.168Z,36.80
2019-03-20T09:41:45.666Z,37.00
2019-03-20T09:44:13.241Z,37.30
2019-03-20T09:46:40.790Z,37.00
2019-03-20T09:49:08.258Z,37.40
2019-03-20T09:51:36.742Z,37.40
2019-03-20T09:54:04.472Z,37.70
2019-03-20T09:56:32.088Z,38.00
2019-03-20T09:58:59.746Z,38.00
2019-03-20T10:01:27.320Z,37.40
2019-03-20T10:03:55.116Z,37.70
2019-03-20T10:06:22.845Z,38.00
2019-03-20T10:08:54.451Z,38.10
2019-03-20T10:11:19.873Z,36.90
2019-03-20T10:13:47.369Z,36.50
2019-03-20T10:16:14.874Z,37.10
2019-03-20T10:18:42.321Z,37.60
2019-03-20T10:21:09.871Z,38.20
2019-03-20T10:23:37.375Z,38.80
2019-03-20T10:26:04.916Z,38.50
2019-03-20T10:28:32.414Z,38.40
2019-03-20T10:30:59.910Z,37.90
2019-03-20T10:33:27.675Z,38.30
2019-03-20T10:35:55.320Z,38.40
2019-03-20T10:38:22.813Z,38.50
2019-03-20T10:40:50.337Z,38.20
2019-03-20T10:43:17.842Z,38.80
2019-03-20T10:45:45.405Z,38.30
2019-03-20T10:48:13.066Z,38.90
2019-03-20T10:50:40.563Z,39.70
2019-03-20T10:53:08.255Z,39.70
2019-03-20T10:55:35.768Z,40.10
2019-03-20T10:58:04.215Z,39.70
2019-03-20T11:00:31.784Z,39.30
2019-03-20T11:02:59.412Z,39.40
2019-03-20T11:05:26.985Z,40.20
2019-03-20T11:07:54.568Z,40.60
2019-03-20T11:10:22.465Z,41.00
2019-03-20T11:12:50.166Z,41.70
2019-03-20T11:15:17.858Z,41.50
2019-03-20T11:17:45.322Z,41.30
2019-03-20T11:20:14.279Z,41.40
2019-03-20T11:22:42.216Z,41.50
2019-03-20T11:25:10.868Z,41.20
2019-03-20T11:27:38.482Z,41.20
2019-03-20T11:30:11.087Z,41.70
2019-03-20T11:32:40.090Z,40.30
2019-03-20T11:35:08.136Z,40.50
2019-03-20T11:37:35.652Z,40.90
2019-03-20T11:40:05.455Z,39.50
2019-03-20T11:42:33.231Z,39.70
2019-03-20T11:45:00.685Z,40.10
2019-03-20T11:47:28.162Z,40.60
2019-03-20T11:49:55.755Z,40.10
2019-03-20T11:52:23.273Z,39.90
2019-03-20T11:54:50.970Z,39.90
2019-03-20T11:57:18.493Z,40.50
2019-03-20T11:59:46.042Z,41.10
2019-03-20T12:02:13.781Z,41.90
2019-03-20T12:04:41.674Z,42.00
2019-03-20T12:07:09.441Z,41.90
2019-03-20T12:09:41.249Z,42.30
2019-03-20T12:12:06.820Z,42.80
2019-03-20T12:14:34.428Z,43.40
2019-03-20T12:17:02.016Z,43.30
2019-03-20T12:19:29.524Z,41.00
2019-03-20T12:21:57.418Z,39.30
2019-03-20T12:24:25.314Z,39.20
2019-03-20T12:26:52.921Z,39.10
2019-03-20T12:29:23.098Z,39.20
2019-03-20T12:31:50.830Z,39.80
2019-03-20T12:34:18.678Z,40.30
2019-03-20T12:36:46.360Z,40.60
2019-03-20T12:39:14.121Z,40.50
2019-03-20T12:41:41.840Z,40.30
2019-03-20T12:44:09.751Z,39.80
2019-03-20T12:46:41.793Z,39.80
2019-03-20T12:49:06.814Z,40.20
2019-03-20T12:51:34.831Z,39.50
2019-03-20T12:54:02.329Z,39.40
2019-03-20T12:56:30.294Z,39.00
2019-03-20T12:58:57.953Z,39.30
2019-03-20T13:01:25.655Z,39.80
2019-03-20T13:03:53.422Z,39.60
2019-03-20T13:06:21.232Z,38.90
2019-03-20T13:08:48.766Z,38.90
2019-03-20T13:11:16.402Z,39.50
2019-03-20T13:13:44.138Z,40.00
2019-03-20T13:16:11.952Z,40.50
2019-03-20T13:18:39.487Z,39.90
2019-03-20T13:21:07.215Z,39.20
2019-03-20T13:23:36.148Z,39.80
2019-03-20T13:26:03.900Z,40.10
2019-03-20T13:28:31.821Z,40.40
2019-03-20T13:31:02.253Z,40.30
2019-03-20T13:33:30.253Z,40.10
2019-03-20T13:35:57.872Z,39.10
2019-03-20T13:38:25.380Z,38.90
2019-03-20T13:40:53.442Z,38.80
2019-03-20T13:43:21.083Z,39.00
2019-03-20T13:45:48.619Z,39.10
2019-03-20T13:48:16.162Z,38.90
2019-03-20T13:50:43.801Z,37.60
2019-03-20T13:53:11.417Z,37.50
2019-03-20T13:55:38.954Z,37.40
2019-03-20T13:58:06.529Z,37.30
2019-03-20T14:00:34.064Z,37.40
2019-03-20T14:03:01.559Z,35.50
2019-03-20T14:05:29.020Z,34.60
2019-03-20T14:07:57.036Z,34.80
2019-03-20T14:10:25.819Z,35.10
2019-03-20T14:12:53.706Z,35.00
2019-03-20T14:15:21.269Z,34.40
2019-03-20T14:17:48.912Z,34.70
2019-03-20T14:20:18.593Z,35.20
2019-03-20T14:22:46.624Z,35.00
2019-03-20T14:25:14.130Z,34.60
2019-03-20T14:27:41.751Z,32.60
2019-03-20T14:30:15.037Z,31.50
2019-03-20T14:32:42.586Z,32.20
2019-03-20T14:35:10.130Z,32.80
2019-03-20T14:37:37.658Z,33.20
2019-03-20T14:40:05.263Z,33.00
2019-03-20T14:42:32.934Z,33.00
2019-03-20T14:45:00.529Z,33.70
2019-03-20T14:47:27.997Z,33.60
2019-03-20T14:49:56.495Z,33.40
2019-03-20T14:52:24.423Z,32.20
2019-03-20T14:54:51.886Z,31.30
2019-03-20T14:57:19.954Z,31.50
2019-03-20T14:59:47.634Z,31.60
2019-03-20T15:02:15.269Z,31.10
2019-03-20T15:04:42.853Z,31.30
2019-03-20T15:07:10.597Z,31.40
2019-03-20T15:09:38.277Z,31.00
2019-03-20T15:12:06.010Z,30.70
2019-03-20T15:14:33.671Z,29.60
2019-03-20T15:17:01.129Z,28.80
2019-03-20T15:19:28.609Z,28.80
2019-03-20T15:21:56.122Z,28.40
2019-03-20T15:24:23.854Z,27.90
2019-03-20T15:26:57.853Z,27.50
2019-03-20T15:29:25.579Z,27.20
2019-03-20T15:31:53.384Z,26.00
2019-03-20T15:34:22.308Z,25.60
2019-03-20T15:36:51.134Z,25.20
2019-03-20T15:39:18.731Z,25.00
2019-03-20T15:41:46.488Z,25.20
2019-03-20T15:44:14.120Z,24.90
2019-03-20T15:46:41.817Z,24.70
2019-03-20T15:49:09.312Z,24.40
2019-03-20T15:51:36.846Z,24.40
2019-03-20T15:54:05.341Z,24.50
2019-03-20T15:56:33.569Z,24.00
2019-03-20T15:59:01.142Z,23.40
2019-03-20T16:01:28.684Z,23.40
2019-03-20T16:03:56.248Z,23.20
2019-03-20T16:06:23.778Z,22.50
2019-03-20T16:09:13.198Z,21.60
2019-03-20T16:11:43.928Z,21.20
2019-03-20T16:14:11.561Z,20.90
2019-03-20T16:16:39.069Z,20.90
2019-03-20T16:19:06.578Z,20.80
2019-03-20T16:21:34.134Z,20.40
2019-03-20T16:24:01.695Z,19.50
2019-03-20T16:26:29.582Z,19.20
2019-03-20T16:28:57.114Z,19.10
2019-03-20T16:31:27.714Z,18.50
2019-03-20T16:33:56.165Z,17.80
2019-03-20T16:36:23.679Z,17.50
2019-03-20T16:38:51.620Z,17.40
2019-03-20T16:41:19.304Z,17.30
2019-03-20T16:43:47.006Z,17.20
2019-03-20T16:46:14.585Z,16.90
2019-03-20T16:48:42.105Z,16.40
2019-03-20T16:51:10.573Z,16.10
2019-03-20T16:53:39.018Z,16.10
2019-03-20T16:56:06.540Z,15.90
2019-03-20T16:58:34.069Z,15.70
2019-03-20T17:01:01.544Z,15.20
2019-03-20T17:03:29.014Z,15.00
2019-03-20T17:05:56.485Z,14.80
2019-03-20T17:08:25.053Z,14.40
2019-03-20T17:10:52.612Z,14.30
2019-03-20T17:13:20.097Z,14.00
2019-03-20T17:15:47.605Z,13.80
2019-03-20T17:18:15.059Z,13.50
2019-03-20T17:20:42.656Z,13.20
2019-03-20T17:23:10.399Z,13.00
2019-03-20T17:25:37.996Z,12.70
2019-03-20T17:28:05.588Z,12.40
2019-03-20T17:30:34.292Z,12.10
2019-03-20T17:33:01.834Z,11.90
2019-03-20T17:35:29.551Z,11.60
2019-03-20T17:37:57.130Z,11.50
2019-03-20T17:40:24.743Z,11.20
2019-03-20T17:42:52.323Z,11.10
2019-03-20T17:45:20.198Z,10.90
2019-03-20T17:47:47.854Z,10.80
2019-03-20T17:50:17.860Z,10.80
2019-03-20T17:52:45.381Z,10.70
2019-03-20T17:55:12.849Z,10.60
2019-03-20T17:57:41.322Z,10.60
2019-03-20T18:00:11.836Z,10.50
2019-03-20T18:02:39.424Z,10.40
2019-03-20T18:05:07.354Z,10.20
2019-03-20T18:07:35.006Z,10.10
2019-03-20T18:10:02.481Z,10.00
2019-03-20T18:12:31.182Z,9.90
2019-03-20T18:14:58.687Z,9.70
2019-03-20T18:17:26.499Z,9.60
2019-03-20T18:19:57.774Z,9.50
2019-03-20T18:22:26.159Z,9.40
2019-03-20T18:24:53.767Z,9.30
2019-03-20T18:27:21.311Z,9.20
2019-03-20T18:29:48.799Z,9.10
2019-03-20T18:32:16.274Z,9.10
2019-03-20T18:34:43.859Z,9.00
2019-03-20T18:37:11.403Z,8.90
2019-03-20T18:39:39.027Z,8.80
2019-03-20T18:42:06.489Z,8.70
2019-03-20T18:44:34.126Z,8.70
2019-03-20T18:47:01.673Z,8.60
2019-03-20T18:49:29.146Z,8.50
2019-03-20T18:51:56.684Z,8.50
2019-03-20T18:54:24.213Z,8.40
2019-03-20T18:56:51.670Z,8.30
2019-03-20T18:59:19.306Z,8.20
2019-03-20T19:01:46.775Z,8.20
2019-03-20T19:04:14.433Z,8.10
2019-03-20T19:06:42.074Z,8.00
2019-03-20T19:09:09.885Z,7.90
2019-03-20T19:11:37.965Z,7.80
2019-03-20T19:14:05.571Z,7.80
2019-03-20T19:16:33.148Z,7.70
2019-03-20T19:19:00.756Z,7.70
2019-03-20T19:21:28.314Z,7.60
2019-03-20T19:23:56.002Z,7.50
2019-03-20T19:26:23.559Z,7.50
2019-03-20T19:28:51.247Z,7.40
2019-03-20T19:31:18.732Z,7.30
2019-03-20T19:33:46.279Z,7.20
2019-03-20T19:39:20.945Z,7.10
2019-03-20T19:41:48.705Z,7.00
2019-03-20T19:44:16.636Z,7.00
2019-03-20T19:46:44.325Z,6.90
2019-03-20T19:49:12.130Z,6.80
2019-03-20T19:51:39.628Z,6.70
2019-03-20T19:54:07.357Z,6.70
2019-03-20T19:56:34.838Z,6.60
2019-03-20T19:59:03.304Z,6.50
2019-03-20T20:01:30.915Z,6.50
2019-03-20T20:03:58.772Z,6.40
2019-03-20T20:06:26.424Z,6.30
2019-03-20T20:08:54.096Z,6.10
2019-03-20T20:11:23.001Z,6.10
2019-03-20T20:13:51.562Z,6.10
2019-03-20T20:16:19.021Z,6.10
2019-03-20T20:18:46.646Z,6.00
2019-03-20T20:21:14.230Z,6.00
2019-03-20T20:23:41.740Z,6.00
2019-03-20T20:26:09.371Z,5.90
2019-03-20T20:28:36.951Z,5.90
2019-03-20T20:31:04.484Z,5.80
2019-03-20T20:33:32.006Z,5.70
2019-03-20T20:35:59.662Z,5.70
2019-03-20T20:38:27.425Z,5.60
2019-03-20T20:40:55.144Z,5.60
2019-03-20T20:43:22.890Z,5.50
2019-03-20T20:45:50.488Z,5.40
2019-03-20T20:48:18.022Z,5.30
2019-03-20T20:50:45.562Z,5.30
2019-03-20T20:53:13.055Z,5.20
2019-03-20T20:55:40.604Z,5.20
2019-03-20T20:58:08.164Z,5.10
2019-03-20T21:00:35.642Z,5.10
2019-03-20T21:03:03.222Z,5.00
2019-03-20T21:05:30.761Z,4.90
2019-03-20T21:07:58.281Z,4.90
2019-03-20T21:10:25.851Z,4.90
2019-03-20T21:12:56.852Z,4.80
2019-03-20T21:15:46.555Z,4.80
2019-03-20T21:18:56.705Z,4.70
2019-03-20T21:21:52.976Z,4.60
2019-03-20T21:24:23.363Z,4.60
2019-03-20T21:27:41.377Z,4.60
2019-03-20T21:30:53.462Z,4.50
2019-03-20T21:33:54.191Z,4.40
2019-03-20T21:36:58.891Z,4.30
2019-03-20T21:39:26.877Z,4.30
2019-03-20T21:42:42.840Z,4.30
2019-03-20T21:45:31.832Z,4.20
2019-03-20T21:47:59.873Z,4.10
2019-03-20T21:51:21.349Z,4.00
2019-03-20T21:54:36.856Z,4.00
2019-03-20T21:57:51.918Z,3.90
2019-03-20T22:00:45.592Z,3.90
2019-03-20T22:03:13.672Z,3.80
2019-03-20T22:06:38.460Z,3.80
2019-03-20T22:09:21.139Z,3.70
2019-03-20T22:12:18.052Z,3.70
2019-03-20T22:14:55.286Z,3.60
2019-03-20T22:17:53.362Z,3.60
2019-03-20T22:20:48.601Z,3.60
2019-03-20T22:23:43.129Z,3.50
2019-03-20T22:26:54.542Z,3.50
2019-03-20T22:29:26.731Z,3.40
2019-03-20T22:32:40.856Z,3.30
2019-03-20T22:36:02.738Z,3.30
2019-03-20T22:39:21.279Z,3.30
2019-03-20T22:42:19.436Z,3.20
2019-03-20T22:45:29.837Z,3.10
2019-03-20T22:48:39.145Z,3.10
2019-03-20T22:51:25.586Z,3.10
2019-03-20T22:54:21.681Z,3.10
2019-03-20T22:57:33.263Z,3.00
2019-03-20T23:00:01.284Z,3.00
2019-03-20T23:02:53.308Z,2.90
2019-03-20T23:05:21.409Z,2.90
2019-03-20T23:07:49.510Z,2.90
2019-03-20T23:10:17.546Z,2.90
2019-03-20T23:12:46.954Z,2.80
2019-03-20T23:15:16.006Z,2.80
2019-03-20T23:17:44.057Z,2.80
2019-03-20T23:20:14.078Z,2.80
2019-03-20T23:22:42.258Z,2.80
2019-03-20T23:25:10.632Z,2.80
2019-03-20T23:27:39.174Z,2.80
2019-03-20T23:30:11.511Z,2.80
2019-03-20T23:32:39.617Z,2.70
2019-03-20T23:35:08.654Z,2.70
2019-03-20T23:37:36.800Z,2.70
2019-03-20T23:40:06.325Z,2.60
2019-03-20T23:42:34.435Z,2.60
2019-03-20T23:45:02.568Z,2.60
2019-03-20T23:47:58.060Z,2.60
2019-03-20T23:50:26.187Z,2.50
2019-03-20T23:52:55.257Z,2.40
2019-03-20T23:55:23.474Z,2.40
2019-03-20T23:57:51.631Z,2.40
